Time;durP1;ratioP1;P1;durP2;ratioP2;P2;SDS_P1;SDS_P2;PMS_P1;PMS_P2;Temp;Humidity;BMP_temperature;BMP_pressure;BME280_temperature;BME280_humidity;BME280_pressure;Samples;Min_cycle;Max_cycle;Signal;HPM_P1;HPM_P2
2023/03/25 00:01:33;;;;;;;2.60;0.80;;;8.50;99.90;;;;;;5015616;28;20214;-86
2023/03/25 00:04:00;;;;;;;5.23;0.90;;;8.60;99.90;;;;;;5016905;28;20171;-92
2023/03/25 00:06:27;;;;;;;1.47;0.90;;;8.50;99.90;;;;;;5017013;28;20172;-84
2023/03/25 00:08:53;;;;;;;1.00;0.50;;;8.50;99.90;;;;;;4999816;28;20187;-85
2023/03/25 00:11:19;;;;;;;2.37;0.70;;;8.50;99.90;;;;;;5016880;28;20539;-88
2023/03/25 00:13:46;;;;;;;2.23;0.83;;;8.70;99.90;;;;;;5023449;28;20206;-88
2023/03/25 00:16:13;;;;;;;2.30;0.63;;;8.70;99.90;;;;;;5036829;28;20175;-85
2023/03/25 00:18:40;;;;;;;4.33;1.00;;;8.70;99.90;;;;;;5036790;28;20194;-90
2023/03/25 00:21:10;;;;;;;1.80;0.70;;;8.70;99.90;;;;;;5036434;28;20198;-91
2023/03/25 00:23:37;;;;;;;3.27;1.00;;;8.70;99.90;;;;;;5036527;28;20182;-85
2023/03/25 00:26:03;;;;;;;2.03;0.60;;;8.70;99.90;;;;;;5036364;28;20174;-91
2023/03/25 00:28:32;;;;;;;1.50;0.67;;;8.70;99.90;;;;;;5036487;28;20183;-86
2023/03/25 00:31:07;;;;;;;1.23;0.70;;;8.70;99.90;;;;;;5036121;28;20256;-86
2023/03/25 00:33:34;;;;;;;3.27;0.60;;;8.80;99.90;;;;;;5036336;28;20196;-86
2023/03/25 00:36:00;;;;;;;2.37;0.70;;;8.80;99.90;;;;;;5036357;28;20171;-87
2023/03/25 00:38:33;;;;;;;6.10;0.90;;;8.80;99.90;;;;;;5018507;28;20206;-87
2023/03/25 00:41:21;;;;;;;2.63;1.10;;;8.80;99.90;;;;;;5018526;28;20203;-86
2023/03/25 00:43:48;;;;;;;2.67;0.80;;;8.90;99.90;;;;;;5036453;28;20186;-85
2023/03/25 00:46:15;;;;;;;2.07;0.73;;;8.80;99.90;;;;;;5036303;28;20171;-87
2023/03/25 00:48:42;;;;;;;5.07;0.83;;;8.80;99.90;;;;;;5036277;28;20178;-88
2023/03/25 00:51:12;;;;;;;1.87;0.60;;;8.80;99.90;;;;;;5036154;28;20256;-86
2023/03/25 00:53:38;;;;;;;1.47;0.50;;;8.90;99.90;;;;;;5035877;28;20159;-87
2023/03/25 00:56:05;;;;;;;5.53;0.93;;;8.90;99.90;;;;;;5035835;28;20186;-87
2023/03/25 00:58:30;;;;;;;2.20;0.77;;;8.90;99.90;;;;;;5035029;28;20181;-85
2023/03/25 01:01:06;;;;;;;1.93;0.80;;;8.90;99.90;;;;;;5018082;28;20556;-91
2023/03/25 01:03:35;;;;;;;2.77;0.60;;;8.90;99.90;;;;;;5036147;28;20601;-87
2023/03/25 01:06:02;;;;;;;1.87;0.87;;;8.90;99.90;;;;;;5036166;28;20186;-87
2023/03/25 01:08:28;;;;;;;1.87;0.70;;;8.90;99.90;;;;;;5018472;28;20195;-86
2023/03/25 01:10:55;;;;;;;2.63;0.85;;;8.90;99.90;;;;;;5035967;28;20181;-86
2023/03/25 01:13:21;;;;;;;5.23;0.73;;;8.80;99.90;;;;;;5035737;28;20201;-87
2023/03/25 01:15:47;;;;;;;1.10;0.80;;;8.80;99.90;;;;;;5035579;28;20178;-86
2023/03/25 01:18:13;;;;;;;3.90;0.83;;;8.80;99.90;;;;;;5016953;28;20762;-87
2023/03/25 01:20:39;;;;;;;1.57;0.60;;;8.70;99.90;;;;;;5035595;28;20174;-86
2023/03/25 01:23:05;;;;;;;2.33;0.83;;;8.70;99.90;;;;;;5035638;28;20170;-86
2023/03/25 01:25:31;;;;;;;3.33;0.80;;;8.60;99.90;;;;;;5035220;28;20171;-90
2023/03/25 01:27:56;;;;;;;2.57;0.97;;;8.70;99.90;;;;;;5033795;28;20229;-86
2023/03/25 01:30:22;;;;;;;2.17;0.80;;;8.70;99.90;;;;;;5034418;28;20218;-88
2023/03/25 01:32:47;;;;;;;1.10;0.70;;;8.70;99.90;;;;;;5034734;28;20249;-87
2023/03/25 01:35:13;;;;;;;1.77;0.70;;;8.70;99.90;;;;;;5035128;28;20206;-87
2023/03/25 01:37:39;;;;;;;1.77;0.67;;;8.60;99.90;;;;;;5034861;28;20170;-87
2023/03/25 01:40:08;;;;;;;2.93;0.90;;;8.60;99.90;;;;;;5034608;28;20194;-86
2023/03/25 01:42:34;;;;;;;2.37;0.80;;;8.60;99.90;;;;;;5034676;28;20213;-86
2023/03/25 01:45:19;;;;;;;3.40;1.10;;;8.50;99.90;;;;;;5034756;28;20171;-87
2023/03/25 01:47:48;;;;;;;2.33;0.70;;;8.50;99.90;;;;;;5034776;28;20170;-85
2023/03/25 01:50:14;;;;;;;1.67;0.50;;;8.40;99.90;;;;;;5034728;28;20181;-89
2023/03/25 01:52:50;;;;;;;2.70;1.17;;;8.40;99.90;;;;;;5034803;28;20163;-88
2023/03/25 01:55:16;;;;;;;2.57;0.80;;;8.50;99.90;;;;;;5034972;28;20167;-82
2023/03/25 01:57:45;;;;;;;3.27;0.80;;;8.40;99.90;;;;;;5017445;28;20186;-87
2023/03/25 02:00:14;;;;;;;2.53;0.60;;;8.40;99.90;;;;;;5034451;28;20193;-86
2023/03/25 02:02:42;;;;;;;2.10;0.70;;;8.40;99.90;;;;;;5016736;28;20320;-86
2023/03/25 02:05:19;;;;;;;2.87;0.70;;;8.40;99.90;;;;;;5034595;28;20175;-88
2023/03/25 02:07:47;;;;;;;2.73;1.00;;;8.40;99.90;;;;;;5034656;28;20171;-85
2023/03/25 02:10:15;;;;;;;2.93;1.00;;;8.40;99.90;;;;;;5017284;28;20261;-91
2023/03/25 02:12:41;;;;;;;2.93;0.83;;;8.50;99.90;;;;;;5034721;28;20602;-90
2023/03/25 02:15:09;;;;;;;3.30;0.83;;;8.50;99.90;;;;;;5017157;28;20175;-91
2023/03/25 02:17:48;;;;;;;3.17;1.00;;;8.50;99.90;;;;;;5034336;28;20258;-88
2023/03/25 02:20:41;;;;;;;3.10;0.90;;;8.60;99.90;;;;;;5034963;28;20194;-89
2023/03/25 02:23:27;;;;;;;4.60;1.00;;;8.60;99.90;;;;;;5034827;28;20179;-87
2023/03/25 02:26:10;;;;;;;3.83;0.90;;;8.70;99.90;;;;;;5033281;28;20617;-88
2023/03/25 02:28:39;;;;;;;4.83;0.90;;;8.70;99.90;;;;;;5015042;28;20230;-90
2023/03/25 02:31:17;;;;;;;2.13;0.87;;;8.70;99.90;;;;;;5014668;28;20223;-92
2023/03/25 02:33:54;;;;;;;4.13;0.90;;;8.70;99.90;;;;;;4997152;28;20178;-86
2023/03/25 02:36:33;;;;;;;2.17;0.90;;;8.80;99.90;;;;;;5014469;28;20193;-86
2023/03/25 02:39:14;;;;;;;2.57;0.80;;;8.80;99.90;;;;;;5014613;28;20242;-93
2023/03/25 02:41:57;;;;;;;2.10;0.60;;;8.80;99.90;;;;;;5014155;28;20207;-85
2023/03/25 02:44:35;;;;;;;1.73;0.90;;;8.90;99.90;;;;;;4996811;28;20886;-86
2023/03/25 02:47:06;;;;;;;1.23;0.70;;;8.90;99.90;;;;;;5014448;28;20246;-87
2023/03/25 02:49:39;;;;;;;2.23;0.83;;;8.90;99.90;;;;;;5014650;28;20170;-89
2023/03/25 02:52:27;;;;;;;2.77;0.93;;;8.90;99.90;;;;;;5014620;28;20160;-90
2023/03/25 02:54:57;;;;;;;1.37;0.80;;;8.90;99.90;;;;;;5014402;28;20156;-87
2023/03/25 02:57:27;;;;;;;2.17;0.80;;;8.90;99.90;;;;;;5028029;28;20182;-86
2023/03/25 02:59:55;;;;;;;1.05;0.60;;;8.90;99.90;;;;;;5034487;28;20175;-93
2023/03/25 03:02:26;;;;;;;3.00;0.97;;;8.90;99.90;;;;;;5015860;28;20210;-87
2023/03/25 03:04:54;;;;;;;2.90;0.60;;;8.90;99.90;;;;;;5016543;28;20217;-87
2023/03/25 03:07:20;;;;;;;2.30;0.73;;;8.90;99.90;;;;;;5034435;28;20171;-89
2023/03/25 03:09:56;;;;;;;3.63;0.97;;;8.90;99.90;;;;;;5015430;28;20269;-90
2023/03/25 03:13:01;;;;;;;2.37;0.70;;;8.90;99.90;;;;;;5016775;28;20196;-87
2023/03/25 03:18:33;;;;;;;3.40;0.77;;;8.80;99.90;;;;;;5355032;22;20240;-86
2023/03/25 03:21:06;;;;;;;1.90;0.83;;;8.90;99.90;;;;;;4994853;28;20215;-84
2023/03/25 03:23:44;;;;;;;5.03;0.80;;;8.90;99.90;;;;;;4980781;28;20211;-82
2023/03/25 03:26:42;;;;;;;2.37;0.60;;;8.90;99.90;;;;;;4996588;28;20179;-84
2023/03/25 03:29:19;;;;;;;3.70;0.77;;;8.80;99.90;;;;;;4980205;28;20178;-83
2023/03/25 03:32:03;;;;;;;2.30;0.90;;;8.90;99.90;;;;;;4996409;28;20262;-82
2023/03/25 03:34:45;;;;;;;2.30;0.90;;;8.80;99.90;;;;;;4996694;28;20175;-86
2023/03/25 03:37:14;;;;;;;1.23;0.73;;;8.80;99.90;;;;;;4997513;28;20168;-85
2023/03/25 03:39:42;;;;;;;1.03;0.60;;;8.80;99.90;;;;;;5009530;28;20187;-84
2023/03/25 03:42:21;;;;;;;3.00;0.80;;;8.90;99.90;;;;;;5015582;28;20211;-84
2023/03/25 03:44:53;;;;;;;1.27;0.60;;;8.80;99.90;;;;;;5016264;28;20182;-87
2023/03/25 03:47:25;;;;;;;1.47;0.80;;;8.80;99.90;;;;;;5015240;28;20574;-82
2023/03/25 03:49:57;;;;;;;2.40;1.03;;;8.80;99.90;;;;;;5015225;28;20234;-82
2023/03/25 03:52:36;;;;;;;1.23;0.77;;;8.80;99.90;;;;;;5016607;28;20252;-83
2023/03/25 03:55:24;;;;;;;2.23;1.20;;;8.80;99.90;;;;;;5016323;28;20306;-88
2023/03/25 03:57:57;;;;;;;4.43;1.20;;;8.90;99.90;;;;;;5016868;28;20183;-87
2023/03/25 04:00:37;;;;;;;2.67;1.27;;;8.90;99.90;;;;;;5017116;28;20170;-89
2023/03/25 04:03:17;;;;;;;3.43;0.90;;;8.90;99.90;;;;;;5015681;28;20257;-82
2023/03/25 04:05:51;;;;;;;3.13;1.20;;;8.80;99.90;;;;;;5018817;28;20170;-84
2023/03/25 04:08:34;;;;;;;2.90;1.10;;;8.90;99.90;;;;;;5019119;28;20510;-83
2023/03/25 04:11:08;;;;;;;3.07;1.13;;;8.80;99.90;;;;;;5036176;28;20179;-83
2023/03/25 04:13:40;;;;;;;3.13;1.20;;;8.90;99.90;;;;;;5018603;28;20174;-87
2023/03/25 04:16:07;;;;;;;3.30;1.20;;;8.80;99.90;;;;;;5018591;28;20182;-85
2023/03/25 04:18:33;;;;;;;2.10;1.10;;;8.80;99.90;;;;;;5031657;28;20230;-82
2023/03/25 04:20:59;;;;;;;2.20;1.17;;;8.80;99.90;;;;;;5051388;28;20221;-82
2023/03/25 04:23:28;;;;;;;1.90;1.13;;;8.70;99.90;;;;;;5051478;28;20252;-85
2023/03/25 04:25:54;;;;;;;2.63;1.20;;;8.70;99.90;;;;;;5051703;28;20209;-83
2023/03/25 04:28:22;;;;;;;3.83;1.43;;;8.70;99.90;;;;;;5036612;28;20240;-91
2023/03/25 04:30:49;;;;;;;2.77;1.30;;;8.70;99.90;;;;;;5052098;28;20223;-84
2023/03/25 04:33:14;;;;;;;2.80;1.27;;;8.70;99.90;;;;;;5050384;28;20625;-83
2023/03/25 04:35:40;;;;;;;5.57;1.63;;;8.70;99.90;;;;;;5051741;28;20321;-91
2023/03/25 04:38:06;;;;;;;2.03;1.23;;;8.70;99.90;;;;;;5035893;28;20174;-89
2023/03/25 04:40:32;;;;;;;3.03;1.00;;;8.70;99.90;;;;;;5051541;28;20628;-84
2023/03/25 04:42:58;;;;;;;6.03;1.53;;;8.60;99.90;;;;;;5034683;28;20182;-85
2023/03/25 04:45:24;;;;;;;2.40;1.13;;;8.60;99.90;;;;;;5051461;28;20194;-83
2023/03/25 04:47:52;;;;;;;5.83;1.30;;;8.50;99.90;;;;;;5035346;28;20202;-82
2023/03/25 04:50:36;;;;;;;3.60;1.00;;;8.50;99.90;;;;;;5050448;28;20186;-82
2023/03/25 04:53:02;;;;;;;6.43;1.27;;;8.50;99.90;;;;;;5035359;28;20583;-83
2023/03/25 04:55:28;;;;;;;4.00;1.13;;;8.50;99.90;;;;;;5034454;28;20191;-83
2023/03/25 04:57:54;;;;;;;4.57;1.40;;;8.40;99.90;;;;;;5050727;28;20515;-82
2023/03/25 05:00:22;;;;;;;2.37;1.20;;;8.50;99.90;;;;;;5050437;28;20264;-83
2023/03/25 05:02:50;;;;;;;5.80;1.23;;;8.40;99.90;;;;;;5035167;28;20554;-84
2023/03/25 05:05:20;;;;;;;2.10;1.00;;;8.40;99.90;;;;;;5050383;28;20190;-83
2023/03/25 05:07:54;;;;;;;4.53;1.20;;;8.40;99.90;;;;;;5034248;28;20193;-82
2023/03/25 05:10:22;;;;;;;7.20;1.20;;;8.40;99.90;;;;;;5050538;28;20174;-86
2023/03/25 05:12:49;;;;;;;2.90;1.00;;;8.40;99.90;;;;;;5018977;28;20214;-82
2023/03/25 05:15:18;;;;;;;4.90;1.23;;;8.50;99.90;;;;;;5015514;28;20179;-83
2023/03/25 05:17:44;;;;;;;3.47;1.10;;;8.50;99.90;;;;;;5015073;28;20238;-82
2023/03/25 05:20:12;;;;;;;3.67;1.27;;;8.50;99.90;;;;;;5014813;28;20183;-84
2023/03/25 05:22:38;;;;;;;5.73;1.40;;;8.40;99.90;;;;;;4997408;28;20261;-87
2023/03/25 05:25:08;;;;;;;5.03;1.30;;;8.40;99.90;;;;;;4997641;28;20183;-83
2023/03/25 05:27:35;;;;;;;6.03;1.37;;;8.40;99.90;;;;;;5028709;28;20253;-89
2023/03/25 05:30:01;;;;;;;3.53;1.30;;;8.40;99.90;;;;;;5034794;28;20578;-84
2023/03/25 05:32:32;;;;;;;10.73;1.30;;;8.30;99.90;;;;;;5035027;28;20167;-85
2023/03/25 05:35:04;;;;;;;4.60;1.40;;;8.30;99.90;;;;;;5017651;28;20228;-93
2023/03/25 05:37:29;;;;;;;3.60;1.07;;;8.40;99.90;;;;;;5013281;28;20252;-86
2023/03/25 05:39:55;;;;;;;4.63;1.00;;;8.30;99.90;;;;;;5006172;28;20211;-85
2023/03/25 05:42:21;;;;;;;4.17;1.00;;;8.30;99.90;;;;;;5004652;28;20207;-84
2023/03/25 05:44:51;;;;;;;4.33;1.17;;;8.30;99.90;;;;;;5003952;28;20187;-86
2023/03/25 05:47:22;;;;;;;3.50;1.10;;;8.30;99.90;;;;;;4986117;28;20179;-83
2023/03/25 05:49:48;;;;;;;2.03;1.20;;;8.40;99.90;;;;;;4995283;28;20204;-85
2023/03/25 05:52:15;;;;;;;2.47;1.17;;;8.50;99.90;;;;;;4978092;28;20619;-91
2023/03/25 05:54:45;;;;;;;2.87;1.27;;;8.50;99.90;;;;;;4978321;28;20186;-91
2023/03/25 05:57:12;;;;;;;4.23;1.40;;;8.50;99.90;;;;;;5015553;28;20613;-84
2023/03/25 05:59:39;;;;;;;3.43;0.90;;;8.50;99.90;;;;;;5034617;28;20206;-83
2023/03/25 06:02:13;;;;;;;1.83;1.10;;;8.40;99.90;;;;;;5015887;28;20293;-92
2023/03/25 06:04:40;;;;;;;2.60;0.90;;;8.40;99.90;;;;;;5034227;28;20186;-83
2023/03/25 06:07:18;;;;;;;1.77;1.10;;;8.40;99.90;;;;;;5034118;28;20179;-83
2023/03/25 06:09:47;;;;;;;2.70;1.20;;;8.30;99.90;;;;;;5017929;28;20190;-93
2023/03/25 06:12:18;;;;;;;2.37;1.00;;;8.30;99.90;;;;;;5015993;28;20182;-82
2023/03/25 06:14:45;;;;;;;2.87;1.10;;;8.30;99.90;;;;;;5014318;28;20213;-88
2023/03/25 06:17:17;;;;;;;2.73;1.07;;;8.30;99.90;;;;;;5032431;28;20261;-85
2023/03/25 06:19:43;;;;;;;2.90;1.30;;;8.30;99.90;;;;;;4996990;28;20206;-84
2023/03/25 06:22:10;;;;;;;4.23;1.00;;;8.30;99.90;;;;;;4995077;28;20318;-83
2023/03/25 06:24:37;;;;;;;2.13;1.10;;;8.30;99.90;;;;;;5013456;28;20194;-83
2023/03/25 06:27:08;;;;;;;3.27;1.30;;;8.40;99.90;;;;;;5013522;28;20214;-84
2023/03/25 06:29:36;;;;;;;2.37;1.10;;;8.30;99.90;;;;;;4994263;28;20666;-84
2023/03/25 06:32:02;;;;;;;5.20;1.30;;;8.30;99.90;;;;;;5008906;28;20179;-82
2023/03/25 06:34:28;;;;;;;3.13;1.17;;;8.40;99.90;;;;;;4999947;28;20231;-82
2023/03/25 06:36:54;;;;;;;2.30;1.50;;;8.30;99.90;;;;;;5002878;28;20611;-83
2023/03/25 06:39:20;;;;;;;3.40;1.33;;;8.40;99.90;;;;;;4993812;28;20188;-83
2023/03/25 06:41:46;;;;;;;5.43;1.50;;;8.30;99.90;;;;;;4994235;28;20650;-83
2023/03/25 06:44:15;;;;;;;4.50;1.40;;;8.30;99.90;;;;;;4993378;28;20172;-82
2023/03/25 06:46:41;;;;;;;3.83;1.40;;;8.30;99.90;;;;;;4993194;28;20172;-84
2023/03/25 06:49:07;;;;;;;3.83;1.50;;;8.20;99.90;;;;;;4993393;28;20275;-82
2023/03/25 06:51:34;;;;;;;2.83;1.30;;;8.30;99.90;;;;;;5005744;28;20190;-83
2023/03/25 06:53:59;;;;;;;5.83;1.47;;;8.30;99.90;;;;;;5011792;28;20187;-84
2023/03/25 06:56:25;;;;;;;3.93;1.40;;;8.30;99.90;;;;;;5014142;28;20213;-85
2023/03/25 06:58:51;;;;;;;2.17;1.17;;;8.40;99.90;;;;;;5016609;28;20178;-83
2023/03/25 07:01:17;;;;;;;3.53;1.60;;;8.40;99.90;;;;;;5013493;28;20203;-84
2023/03/25 07:03:42;;;;;;;4.00;1.40;;;8.40;99.90;;;;;;5016294;28;20479;-83
2023/03/25 07:06:15;;;;;;;3.30;1.17;;;8.40;99.90;;;;;;5016404;28;20570;-91
2023/03/25 07:08:40;;;;;;;3.73;1.40;;;8.50;99.90;;;;;;5016562;28;20179;-82
2023/03/25 07:11:07;;;;;;;3.60;1.13;;;8.50;99.90;;;;;;5013898;28;20704;-82
2023/03/25 07:13:33;;;;;;;3.03;1.20;;;8.50;99.90;;;;;;5015042;28;20174;-82
2023/03/25 07:15:59;;;;;;;3.80;1.53;;;8.50;99.90;;;;;;5014629;28;20529;-87
2023/03/25 07:18:26;;;;;;;3.20;1.20;;;8.60;99.90;;;;;;4977375;28;1139611;-83
2023/03/25 07:20:53;;;;;;;4.73;1.40;;;8.70;99.90;;;;;;5016627;28;20194;-86
2023/03/25 07:23:19;;;;;;;4.73;1.90;;;8.70;99.90;;;;;;5017179;28;20229;-82
2023/03/25 07:25:44;;;;;;;3.20;1.40;;;8.80;99.90;;;;;;5028170;28;20562;-82
2023/03/25 07:28:10;;;;;;;3.47;1.67;;;8.90;99.90;;;;;;5003126;28;20192;-85
2023/03/25 07:30:36;;;;;;;4.17;1.40;;;8.90;99.90;;;;;;5010314;28;20172;-86
2023/03/25 07:33:02;;;;;;;5.13;1.50;;;9.00;99.90;;;;;;5009697;28;20168;-94
2023/03/25 07:35:29;;;;;;;5.57;1.60;;;9.00;99.90;;;;;;4993694;28;20190;-91
2023/03/25 07:37:57;;;;;;;3.77;1.53;;;9.10;99.90;;;;;;4999777;28;20535;-90
2023/03/25 07:40:23;;;;;;;2.70;1.43;;;9.00;99.90;;;;;;5000354;28;20194;-91
2023/03/25 07:42:49;;;;;;;4.33;1.40;;;9.00;99.90;;;;;;5005084;28;20219;-87
2023/03/25 07:45:15;;;;;;;3.17;1.40;;;9.00;99.90;;;;;;5004872;28;20214;-84
2023/03/25 07:47:40;;;;;;;4.70;1.57;;;9.00;99.90;;;;;;5035808;28;20356;-87
2023/03/25 07:50:07;;;;;;;2.93;1.63;;;9.00;99.90;;;;;;5028394;28;20191;-84
2023/03/25 07:52:34;;;;;;;6.67;1.20;;;9.00;99.90;;;;;;5006737;28;20187;-86
2023/03/25 07:55:01;;;;;;;3.70;1.23;;;9.10;99.90;;;;;;5011146;28;20186;-91
2023/03/25 07:57:27;;;;;;;4.80;1.20;;;9.10;99.90;;;;;;5001518;28;20185;-87
2023/03/25 07:59:52;;;;;;;4.97;1.37;;;9.20;99.90;;;;;;5035391;28;20209;-86
2023/03/25 08:02:20;;;;;;;3.93;1.30;;;9.20;99.90;;;;;;5035986;28;20210;-92
2023/03/25 08:04:46;;;;;;;3.87;1.60;;;9.20;99.90;;;;;;5035877;28;20548;-86
2023/03/25 08:07:11;;;;;;;5.03;1.40;;;9.30;99.90;;;;;;5017852;28;20190;-93
2023/03/25 08:09:37;;;;;;;3.30;1.30;;;9.40;99.90;;;;;;5037209;28;20182;-84
2023/03/25 08:12:03;;;;;;;1.92;1.10;;;9.50;99.90;;;;;;5036080;28;20186;-84
2023/03/25 08:14:28;;;;;;;4.57;1.20;;;9.50;99.90;;;;;;5017103;28;20512;-86
2023/03/25 08:16:54;;;;;;;3.95;1.20;;;9.60;99.90;;;;;;5016679;28;20649;-86
2023/03/25 08:19:20;;;;;;;4.43;1.30;;;9.80;99.90;;;;;;5017011;28;20263;-88
2023/03/25 08:21:46;;;;;;;2.58;1.23;;;9.90;99.90;;;;;;5016168;28;20277;-82
2023/03/25 08:24:12;;;;;;;2.67;0.93;;;9.90;99.90;;;;;;5017327;28;20563;-85
2023/03/25 08:26:38;;;;;;;3.47;1.25;;;9.90;99.90;;;;;;4991424;28;20176;-88
2023/03/25 08:29:04;;;;;;;2.35;1.15;;;9.70;99.90;;;;;;4997361;28;20266;-81
2023/03/25 08:31:31;;;;;;;1.40;1.00;;;9.60;99.90;;;;;;5015313;28;20229;-85
2023/03/25 08:34:02;;;;;;;4.72;1.40;;;9.50;99.90;;;;;;5015520;28;20275;-86
2023/03/25 08:36:27;;;;;;;1.70;1.15;;;9.30;99.90;;;;;;5018930;28;20232;-90
2023/03/25 08:38:54;;;;;;;2.70;1.30;;;9.20;99.90;;;;;;5035455;28;20281;-84
2023/03/25 08:41:21;;;;;;;2.87;1.33;;;9.20;99.90;;;;;;5035649;28;20206;-85
2023/03/25 08:43:47;;;;;;;3.80;1.43;;;9.20;99.90;;;;;;5016465;28;20175;-82
2023/03/25 08:46:13;;;;;;;2.57;1.10;;;9.20;99.90;;;;;;5018148;28;20179;-89
2023/03/25 08:48:39;;;;;;;1.40;1.00;;;9.30;99.90;;;;;;5033604;28;20182;-87
2023/03/25 08:51:05;;;;;;;5.30;1.63;;;9.40;99.90;;;;;;5017658;28;20609;-81
2023/03/25 08:53:31;;;;;;;3.37;1.47;;;9.50;99.90;;;;;;5015384;28;20254;-83
2023/03/25 08:55:57;;;;;;;4.40;2.30;;;9.80;99.90;;;;;;5035250;28;20269;-84
2023/03/25 08:58:25;;;;;;;5.93;1.27;;;10.00;99.90;;;;;;5032452;28;20209;-83
2023/03/25 09:00:53;;;;;;;8.52;3.45;;;10.10;99.90;;;;;;5016624;28;20210;-82
2023/03/25 09:03:25;;;;;;;6.00;1.60;;;10.10;99.90;;;;;;5023595;28;20246;-85
2023/03/25 09:05:52;;;;;;;3.13;1.35;;;9.90;99.90;;;;;;5016865;28;20182;-89
2023/03/25 09:08:17;;;;;;;5.55;1.65;;;9.90;99.90;;;;;;5035396;28;20209;-82
2023/03/25 09:10:43;;;;;;;4.88;1.42;;;9.90;99.90;;;;;;5035481;28;20172;-83
2023/03/25 09:13:09;;;;;;;2.70;1.10;;;10.00;99.90;;;;;;5036207;28;20617;-90
2023/03/25 09:15:34;;;;;;;5.33;1.30;;;10.10;99.90;;;;;;5035222;28;20249;-82
2023/03/25 09:18:00;;;;;;;3.80;1.20;;;10.10;99.90;;;;;;5021632;28;20616;-87
2023/03/25 09:20:26;;;;;;;1.95;1.10;;;10.10;99.90;;;;;;5016245;28;20199;-87
2023/03/25 09:22:52;;;;;;;1.25;0.90;;;10.00;99.90;;;;;;5015634;28;20210;-87
2023/03/25 09:25:17;;;;;;;5.82;1.45;;;9.80;99.90;;;;;;4998857;28;20179;-84
2023/03/25 09:27:43;;;;;;;5.50;1.27;;;9.50;99.90;;;;;;5015664;28;20614;-85
2023/03/25 09:30:09;;;;;;;2.95;1.20;;;9.40;99.90;;;;;;5015742;28;20255;-82
2023/03/25 09:32:35;;;;;;;2.50;0.98;;;9.30;99.90;;;;;;5013834;28;20262;-81
2023/03/25 09:35:01;;;;;;;3.17;1.33;;;9.20;99.90;;;;;;5014684;28;20548;-81
2023/03/25 09:37:27;;;;;;;2.63;1.33;;;9.20;99.90;;;;;;5014793;28;20172;-82
2023/03/25 09:39:52;;;;;;;2.53;1.40;;;9.10;99.90;;;;;;5014699;28;20172;-82
2023/03/25 09:42:36;;;;;;;3.43;1.60;;;9.10;99.90;;;;;;4985987;28;20295;-81
2023/03/25 09:45:14;;;;;;;3.00;1.70;;;9.10;99.90;;;;;;4989425;28;20184;-82
2023/03/25 09:47:55;;;;;;;2.20;1.43;;;9.20;99.90;;;;;;4992316;28;20160;-83
2023/03/25 09:50:22;;;;;;;3.13;1.42;;;9.20;99.90;;;;;;4990944;28;20233;-83
2023/03/25 09:53:11;;;;;;;4.97;1.60;;;9.40;99.90;;;;;;4990059;28;20205;-81
2023/03/25 09:55:43;;;;;;;3.00;1.30;;;9.50;99.90;;;;;;4986677;28;20626;-81
2023/03/25 09:58:21;;;;;;;3.97;1.30;;;9.60;99.90;;;;;;4986933;28;20179;-82
2023/03/25 10:00:59;;;;;;;3.03;1.10;;;9.70;99.90;;;;;;4993126;28;20184;-82
2023/03/25 10:04:00;;;;;;;6.38;1.20;;;9.80;99.90;;;;;;4983571;28;20179;-82
2023/03/25 10:06:26;;;;;;;3.67;1.00;;;9.80;99.90;;;;;;4990992;28;20192;-83
2023/03/25 10:09:04;;;;;;;4.35;1.30;;;9.80;99.90;;;;;;4994959;28;20670;-84
2023/03/25 10:11:42;;;;;;;6.07;1.10;;;9.70;99.90;;;;;;4977129;28;20193;-82
2023/03/25 10:14:31;;;;;;;4.07;1.30;;;9.70;99.90;;;;;;4960444;28;20195;-86
2023/03/25 10:17:07;;;;;;;2.33;1.30;;;9.60;99.90;;;;;;4960572;28;20224;-82
2023/03/25 10:19:53;;;;;;;2.90;1.10;;;9.40;99.90;;;;;;4986529;28;20548;-80
2023/03/25 10:22:36;;;;;;;3.27;1.50;;;9.30;99.90;;;;;;4988310;28;20605;-80
2023/03/25 10:25:12;;;;;;;4.80;1.30;;;9.20;99.90;;;;;;4977953;28;20160;-81
2023/03/25 10:27:41;;;;;;;1.90;1.20;;;9.10;99.90;;;;;;4985021;28;20278;-80
2023/03/25 10:30:15;;;;;;;2.20;1.40;;;9.00;99.90;;;;;;4985009;28;20607;-80
2023/03/25 10:32:53;;;;;;;4.23;1.50;;;9.00;99.90;;;;;;4990779;28;20179;-80
2023/03/25 10:35:28;;;;;;;1.90;1.47;;;9.10;99.90;;;;;;4996202;28;20218;-81
2023/03/25 10:38:06;;;;;;;4.90;1.77;;;9.10;99.90;;;;;;5001250;28;20245;-81
2023/03/25 10:40:52;;;;;;;3.42;1.52;;;9.20;99.90;;;;;;4977299;28;20198;-81
2023/03/25 10:43:30;;;;;;;3.78;1.70;;;9.30;99.90;;;;;;4991383;28;20235;-81
2023/03/25 10:46:29;;;;;;;1.83;1.63;;;9.40;99.90;;;;;;4990852;28;20215;-80
2023/03/25 10:48:55;;;;;;;4.85;1.80;;;9.60;99.90;;;;;;4992965;28;20260;-80
2023/03/25 10:51:30;;;;;;;6.53;1.70;;;9.70;99.90;;;;;;4992127;28;20303;-80
2023/03/25 10:53:57;;;;;;;3.22;1.48;;;9.80;99.90;;;;;;4991263;28;20171;-80
2023/03/25 10:56:24;;;;;;;4.05;1.70;;;9.90;99.90;;;;;;4993938;28;20176;-80
2023/03/25 10:58:56;;;;;;;4.63;1.52;;;9.90;99.90;;;;;;4992914;28;20183;-80
2023/03/25 11:01:35;;;;;;;3.28;1.60;;;9.90;99.90;;;;;;4993789;28;20223;-80
2023/03/25 11:04:03;;;;;;;3.47;1.27;;;10.00;99.90;;;;;;4993527;28;20190;-84
2023/03/25 11:06:32;;;;;;;1.73;1.40;;;10.20;99.90;;;;;;4976754;28;20183;-86
2023/03/25 11:09:24;;;;;;;8.50;1.60;;;10.60;99.90;;;;;;4994059;28;20187;-81
2023/03/25 11:11:52;;;;;;;2.35;1.20;;;10.90;99.90;;;;;;4993804;28;20242;-86
2023/03/25 11:14:26;;;;;;;1.52;1.05;;;11.10;99.90;;;;;;4977165;28;20188;-88
2023/03/25 11:17:07;;;;;;;3.75;1.20;;;11.10;99.90;;;;;;4977499;28;20358;-89
2023/03/25 11:19:45;;;;;;;5.90;1.73;;;11.10;99.90;;;;;;4993784;28;20168;-86
2023/03/25 11:22:18;;;;;;;3.58;1.30;;;11.30;99.90;;;;;;4993930;28;20207;-82
2023/03/25 11:24:53;;;;;;;8.35;1.77;;;11.50;99.90;;;;;;4993180;28;20180;-89
2023/03/25 11:27:23;;;;;;;4.75;1.38;;;11.60;99.90;;;;;;4993098;28;20207;-83
2023/03/25 11:29:56;;;;;;;4.50;1.40;;;11.50;99.90;;;;;;4993811;28;20165;-82
2023/03/25 11:32:30;;;;;;;4.65;1.60;;;11.50;99.90;;;;;;4998530;28;20206;-81
2023/03/25 11:35:00;;;;;;;5.80;1.95;;;11.40;99.90;;;;;;5000606;28;20174;-81
2023/03/25 11:37:30;;;;;;;3.28;1.58;;;11.30;99.90;;;;;;5000430;28;20208;-82
2023/03/25 11:40:05;;;;;;;4.35;1.60;;;11.40;99.90;;;;;;5002098;28;20167;-83
2023/03/25 11:42:36;;;;;;;3.05;1.70;;;11.30;99.90;;;;;;5005545;28;20281;-81
2023/03/25 11:45:03;;;;;;;5.68;1.73;;;11.20;99.90;;;;;;5006737;28;20372;-81
2023/03/25 11:47:37;;;;;;;7.28;1.98;;;11.30;99.90;;;;;;4988739;28;20592;-80
2023/03/25 11:50:04;;;;;;;4.07;1.75;;;11.30;99.90;;;;;;4987871;28;20172;-82
2023/03/25 11:52:45;;;;;;;6.68;1.88;;;11.30;99.90;;;;;;5008992;28;20183;-86
2023/03/25 11:55:24;;;;;;;2.95;1.40;;;11.40;99.90;;;;;;5007114;28;20231;-87
2023/03/25 11:57:53;;;;;;;4.50;1.90;;;11.50;99.90;;;;;;5000072;28;20168;-89
2023/03/25 12:00:28;;;;;;;5.30;1.60;;;11.50;99.90;;;;;;4998007;28;20176;-87
2023/03/25 12:03:12;;;;;;;5.40;1.38;;;11.60;99.90;;;;;;5001141;28;20290;-92
2023/03/25 12:05:39;;;;;;;4.97;1.40;;;11.50;99.90;;;;;;5035181;28;20171;-83
2023/03/25 12:08:16;;;;;;;4.68;1.60;;;11.60;99.90;;;;;;5037226;28;20163;-91
2023/03/25 12:10:47;;;;;;;4.43;1.10;;;11.70;99.90;;;;;;5019345;28;20202;-88
2023/03/25 12:13:21;;;;;;;2.95;1.23;;;11.60;99.90;;;;;;5036497;28;20178;-83
2023/03/25 12:16:06;;;;;;;2.78;1.25;;;11.50;99.90;;;;;;5036973;28;20167;-83
2023/03/25 12:18:42;;;;;;;8.70;1.80;;;11.40;99.90;;;;;;5018974;28;20241;-84
2023/03/25 12:21:13;;;;;;;6.60;1.40;;;11.50;99.90;;;;;;5016247;28;20175;-89
2023/03/25 12:23:55;;;;;;;6.03;1.60;;;11.60;99.90;;;;;;5015747;28;20266;-91
2023/03/25 12:26:48;;;;;;;4.78;1.40;;;11.80;99.90;;;;;;4998770;28;20206;-83
2023/03/25 12:29:37;;;;;;;4.63;1.70;;;11.90;99.90;;;;;;5002459;28;20230;-83
2023/03/25 12:32:21;;;;;;;7.07;1.50;;;11.90;99.90;;;;;;4989415;28;20271;-82
2023/03/25 12:35:14;;;;;;;4.47;1.50;;;12.00;99.90;;;;;;4993566;28;20183;-88
2023/03/25 12:38:04;;;;;;;2.50;1.38;;;12.20;99.90;;;;;;4985110;28;20174;-82
2023/03/25 12:40:41;;;;;;;3.33;1.55;;;12.10;99.90;;;;;;4974914;28;20175;-83
2023/03/25 12:43:14;;;;;;;4.18;1.52;;;12.10;99.90;;;;;;4986718;28;20708;-85
2023/03/25 12:45:56;;;;;;;6.47;1.30;;;12.30;99.90;;;;;;4990064;28;20185;-83
2023/03/25 12:48:31;;;;;;;5.22;1.30;;;12.20;99.90;;;;;;4977376;28;20635;-93
2023/03/25 12:51:15;;;;;;;2.80;1.30;;;11.90;99.90;;;;;;4979695;28;20180;-90
2023/03/25 12:54:04;;;;;;;7.07;1.60;;;11.90;99.90;;;;;;4976239;28;20511;-82
2023/03/25 12:56:45;;;;;;;5.07;1.70;;;11.80;99.90;;;;;;4931808;28;20666;-82
2023/03/25 12:59:32;;;;;;;5.25;1.75;;;11.80;99.90;;;;;;4975589;28;20199;-82
2023/03/25 13:02:13;;;;;;;5.07;1.63;;;11.80;99.90;;;;;;4975428;28;20234;-83
2023/03/25 13:04:48;;;;;;;6.22;1.33;;;11.80;99.90;;;;;;5006503;28;20228;-93
2023/03/25 13:07:22;;;;;;;5.20;1.65;;;11.90;99.90;;;;;;5016058;28;20281;-91
2023/03/25 13:10:14;;;;;;;4.15;1.50;;;11.80;99.90;;;;;;5013879;28;20192;-81
2023/03/25 13:12:42;;;;;;;4.63;1.50;;;11.70;99.90;;;;;;5014217;28;20400;-89
2023/03/25 13:15:17;;;;;;;4.45;1.65;;;11.70;99.90;;;;;;4995417;28;20180;-82
2023/03/25 13:18:12;;;;;;;3.75;1.50;;;11.90;99.90;;;;;;4994195;28;20245;-82
2023/03/25 13:21:07;;;;;;;4.88;1.40;;;12.10;99.90;;;;;;4996034;28;20172;-82